sensor_id;sensor_type;location;lat;lon;timestamp;P1;durP1;ratioP1;P2;durP2;ratioP2
63536;SDS011;49686;51.880;5.632;2023-04-03T00:00:47;2.83;;;1.60;;
63536;SDS011;49686;51.880;5.632;2023-04-03T00:03:14;5.25;;;1.60;;
63536;SDS011;49686;51.880;5.632;2023-04-03T00:05:42;2.60;;;1.50;;
63536;SDS011;49686;51.880;5.632;2023-04-03T00:08:09;4.05;;;1.48;;
63536;SDS011;49686;51.880;5.632;2023-04-03T00:10:36;3.22;;;1.75;;
63536;SDS011;49686;51.880;5.632;2023-04-03T00:13:04;3.03;;;1.53;;
63536;SDS011;49686;51.880;5.632;2023-04-03T00:15:32;4.90;;;1.40;;
63536;SDS011;49686;51.880;5.632;2023-04-03T00:18:00;3.58;;;2.53;;
63536;SDS011;49686;51.880;5.632;2023-04-03T00:20:27;4.75;;;1.90;;
63536;SDS011;49686;51.880;5.632;2023-04-03T00:22:55;2.38;;;1.50;;
63536;SDS011;49686;51.880;5.632;2023-04-03T00:25:22;3.88;;;1.38;;
63536;SDS011;49686;51.880;5.632;2023-04-03T00:27:49;4.97;;;1.50;;
63536;SDS011;49686;51.880;5.632;2023-04-03T00:30:16;2.75;;;1.63;;
63536;SDS011;49686;51.880;5.632;2023-04-03T00:32:44;2.95;;;1.52;;
63536;SDS011;49686;51.880;5.632;2023-04-03T00:35:11;3.35;;;1.30;;
63536;SDS011;49686;51.880;5.632;2023-04-03T00:37:38;3.88;;;1.63;;
63536;SDS011;49686;51.880;5.632;2023-04-03T00:40:07;2.75;;;1.92;;
63536;SDS011;49686;51.880;5.632;2023-04-03T00:42:35;4.93;;;1.73;;
63536;SDS011;49686;51.880;5.632;2023-04-03T00:48:02;2.30;;;1.58;;
63536;SDS011;49686;51.880;5.632;2023-04-03T00:50:31;2.80;;;1.63;;
63536;SDS011;49686;51.880;5.632;2023-04-03T00:53:00;3.05;;;1.63;;
63536;SDS011;49686;51.880;5.632;2023-04-03T00:55:32;3.63;;;1.92;;
63536;SDS011;49686;51.880;5.632;2023-04-03T00:58:00;3.67;;;1.80;;
63536;SDS011;49686;51.880;5.632;2023-04-03T01:00:27;4.68;;;1.70;;
63536;SDS011;49686;51.880;5.632;2023-04-03T01:02:54;5.00;;;2.22;;
63536;SDS011;49686;51.880;5.632;2023-04-03T01:05:21;3.03;;;1.70;;
63536;SDS011;49686;51.880;5.632;2023-04-03T01:07:48;4.40;;;2.30;;
63536;SDS011;49686;51.880;5.632;2023-04-03T01:10:17;4.03;;;1.70;;
63536;SDS011;49686;51.880;5.632;2023-04-03T01:12:46;2.70;;;1.45;;
63536;SDS011;49686;51.880;5.632;2023-04-03T01:15:15;3.47;;;1.83;;
63536;SDS011;49686;51.880;5.632;2023-04-03T01:23:20;3.10;;;1.55;;
63536;SDS011;49686;51.880;5.632;2023-04-03T01:26:06;3.35;;;1.83;;
63536;SDS011;49686;51.880;5.632;2023-04-03T01:28:35;1.88;;;1.50;;
63536;SDS011;49686;51.880;5.632;2023-04-03T01:31:04;2.92;;;1.38;;
63536;SDS011;49686;51.880;5.632;2023-04-03T01:33:39;2.80;;;1.38;;
63536;SDS011;49686;51.880;5.632;2023-04-03T01:36:06;4.57;;;1.90;;
63536;SDS011;49686;51.880;5.632;2023-04-03T01:38:36;3.35;;;2.08;;
63536;SDS011;49686;51.880;5.632;2023-04-03T01:41:03;2.70;;;1.70;;
63536;SDS011;49686;51.880;5.632;2023-04-03T01:43:29;3.60;;;1.70;;
63536;SDS011;49686;51.880;5.632;2023-04-03T01:45:56;2.83;;;1.90;;
63536;SDS011;49686;51.880;5.632;2023-04-03T01:48:23;2.30;;;1.40;;
63536;SDS011;49686;51.880;5.632;2023-04-03T01:50:51;3.70;;;1.80;;
63536;SDS011;49686;51.880;5.632;2023-04-03T01:53:18;4.18;;;1.95;;
63536;SDS011;49686;51.880;5.632;2023-04-03T01:55:44;5.07;;;1.60;;
63536;SDS011;49686;51.880;5.632;2023-04-03T01:58:11;5.68;;;1.90;;
63536;SDS011;49686;51.880;5.632;2023-04-03T02:00:38;4.75;;;1.50;;
63536;SDS011;49686;51.880;5.632;2023-04-03T02:03:05;5.75;;;1.75;;
63536;SDS011;49686;51.880;5.632;2023-04-03T02:05:32;4.95;;;1.80;;
63536;SDS011;49686;51.880;5.632;2023-04-03T02:08:00;4.57;;;2.13;;
63536;SDS011;49686;51.880;5.632;2023-04-03T02:10:27;4.60;;;2.47;;
63536;SDS011;49686;51.880;5.632;2023-04-03T02:12:54;2.03;;;1.45;;
63536;SDS011;49686;51.880;5.632;2023-04-03T02:15:20;5.40;;;1.90;;
63536;SDS011;49686;51.880;5.632;2023-04-03T02:17:47;4.88;;;2.05;;
63536;SDS011;49686;51.880;5.632;2023-04-03T02:20:14;3.47;;;1.60;;
63536;SDS011;49686;51.880;5.632;2023-04-03T02:22:41;5.25;;;2.30;;
63536;SDS011;49686;51.880;5.632;2023-04-03T02:25:09;3.38;;;1.60;;
63536;SDS011;49686;51.880;5.632;2023-04-03T02:27:36;4.70;;;2.40;;
63536;SDS011;49686;51.880;5.632;2023-04-03T02:30:04;7.35;;;2.50;;
63536;SDS011;49686;51.880;5.632;2023-04-03T02:32:32;8.88;;;3.42;;
63536;SDS011;49686;51.880;5.632;2023-04-03T02:34:59;7.75;;;2.47;;
63536;SDS011;49686;51.880;5.632;2023-04-03T02:37:25;10.57;;;3.50;;
63536;SDS011;49686;51.880;5.632;2023-04-03T02:39:52;15.02;;;4.57;;
63536;SDS011;49686;51.880;5.632;2023-04-03T02:42:20;16.63;;;4.70;;
63536;SDS011;49686;51.880;5.632;2023-04-03T02:44:47;15.10;;;5.33;;
63536;SDS011;49686;51.880;5.632;2023-04-03T02:47:14;12.07;;;4.47;;
63536;SDS011;49686;51.880;5.632;2023-04-03T02:49:41;12.05;;;4.47;;
63536;SDS011;49686;51.880;5.632;2023-04-03T02:52:07;13.15;;;4.50;;
63536;SDS011;49686;51.880;5.632;2023-04-03T02:54:34;13.15;;;4.45;;
63536;SDS011;49686;51.880;5.632;2023-04-03T02:57:01;12.25;;;4.10;;
63536;SDS011;49686;51.880;5.632;2023-04-03T02:59:29;12.50;;;4.22;;
63536;SDS011;49686;51.880;5.632;2023-04-03T03:01:56;11.53;;;4.20;;
63536;SDS011;49686;51.880;5.632;2023-04-03T03:04:23;16.88;;;5.20;;
63536;SDS011;49686;51.880;5.632;2023-04-03T03:06:50;12.25;;;3.97;;
63536;SDS011;49686;51.880;5.632;2023-04-03T03:09:17;15.98;;;4.65;;
63536;SDS011;49686;51.880;5.632;2023-04-03T03:11:44;15.18;;;4.82;;
63536;SDS011;49686;51.880;5.632;2023-04-03T03:14:10;16.50;;;5.60;;
63536;SDS011;49686;51.880;5.632;2023-04-03T03:16:38;14.88;;;5.18;;
63536;SDS011;49686;51.880;5.632;2023-04-03T03:19:05;19.02;;;4.90;;
63536;SDS011;49686;51.880;5.632;2023-04-03T03:21:32;14.48;;;4.50;;
63536;SDS011;49686;51.880;5.632;2023-04-03T03:23:59;8.63;;;2.67;;
63536;SDS011;49686;51.880;5.632;2023-04-03T03:26:26;10.65;;;4.30;;
63536;SDS011;49686;51.880;5.632;2023-04-03T03:28:53;11.05;;;3.58;;
63536;SDS011;49686;51.880;5.632;2023-04-03T03:31:20;6.25;;;2.70;;
63536;SDS011;49686;51.880;5.632;2023-04-03T03:33:48;6.53;;;2.38;;
63536;SDS011;49686;51.880;5.632;2023-04-03T03:36:15;6.03;;;2.03;;
63536;SDS011;49686;51.880;5.632;2023-04-03T03:38:42;3.47;;;2.08;;
63536;SDS011;49686;51.880;5.632;2023-04-03T03:41:08;8.38;;;3.05;;
63536;SDS011;49686;51.880;5.632;2023-04-03T03:43:35;4.30;;;1.98;;
63536;SDS011;49686;51.880;5.632;2023-04-03T03:46:02;3.08;;;1.83;;
63536;SDS011;49686;51.880;5.632;2023-04-03T03:48:29;3.20;;;1.60;;
63536;SDS011;49686;51.880;5.632;2023-04-03T03:50:57;2.90;;;1.85;;
63536;SDS011;49686;51.880;5.632;2023-04-03T03:53:24;4.85;;;2.20;;
63536;SDS011;49686;51.880;5.632;2023-04-03T03:55:51;7.63;;;1.95;;
63536;SDS011;49686;51.880;5.632;2023-04-03T03:58:18;7.03;;;2.03;;
63536;SDS011;49686;51.880;5.632;2023-04-03T04:00:45;4.38;;;2.10;;
63536;SDS011;49686;51.880;5.632;2023-04-03T04:03:11;3.28;;;1.67;;
63536;SDS011;49686;51.880;5.632;2023-04-03T04:05:38;4.70;;;1.80;;
63536;SDS011;49686;51.880;5.632;2023-04-03T04:08:07;2.63;;;1.73;;
63536;SDS011;49686;51.880;5.632;2023-04-03T04:10:34;3.00;;;1.80;;
63536;SDS011;49686;51.880;5.632;2023-04-03T04:13:01;3.15;;;1.88;;
63536;SDS011;49686;51.880;5.632;2023-04-03T04:15:28;2.80;;;1.75;;
63536;SDS011;49686;51.880;5.632;2023-04-03T04:17:56;4.55;;;1.88;;
63536;SDS011;49686;51.880;5.632;2023-04-03T04:20:23;3.00;;;1.80;;
63536;SDS011;49686;51.880;5.632;2023-04-03T04:22:50;3.55;;;1.65;;
63536;SDS011;49686;51.880;5.632;2023-04-03T04:25:18;2.95;;;1.52;;
63536;SDS011;49686;51.880;5.632;2023-04-03T04:27:45;6.63;;;2.13;;
63536;SDS011;49686;51.880;5.632;2023-04-03T04:30:12;4.47;;;1.85;;
63536;SDS011;49686;51.880;5.632;2023-04-03T04:32:39;4.13;;;1.90;;
63536;SDS011;49686;51.880;5.632;2023-04-03T04:35:07;4.15;;;2.00;;
63536;SDS011;49686;51.880;5.632;2023-04-03T04:37:34;3.03;;;1.50;;
63536;SDS011;49686;51.880;5.632;2023-04-03T04:40:01;2.58;;;1.40;;
63536;SDS011;49686;51.880;5.632;2023-04-03T04:42:29;4.13;;;2.00;;
63536;SDS011;49686;51.880;5.632;2023-04-03T04:44:56;3.40;;;1.60;;
63536;SDS011;49686;51.880;5.632;2023-04-03T04:47:22;4.95;;;2.30;;
63536;SDS011;49686;51.880;5.632;2023-04-03T04:49:49;3.53;;;1.85;;
63536;SDS011;49686;51.880;5.632;2023-04-03T04:52:16;3.22;;;2.00;;
63536;SDS011;49686;51.880;5.632;2023-04-03T04:54:43;3.58;;;1.67;;
63536;SDS011;49686;51.880;5.632;2023-04-03T04:57:10;4.40;;;2.00;;
63536;SDS011;49686;51.880;5.632;2023-04-03T04:59:38;2.95;;;1.40;;
63536;SDS011;49686;51.880;5.632;2023-04-03T05:02:05;4.43;;;1.90;;
63536;SDS011;49686;51.880;5.632;2023-04-03T05:04:32;7.70;;;2.30;;
63536;SDS011;49686;51.880;5.632;2023-04-03T05:06:59;5.38;;;2.00;;
63536;SDS011;49686;51.880;5.632;2023-04-03T05:09:25;6.22;;;2.00;;
63536;SDS011;49686;51.880;5.632;2023-04-03T05:11:52;5.47;;;2.22;;
63536;SDS011;49686;51.880;5.632;2023-04-03T05:14:19;4.68;;;2.38;;
63536;SDS011;49686;51.880;5.632;2023-04-03T05:16:47;7.18;;;2.70;;
63536;SDS011;49686;51.880;5.632;2023-04-03T05:19:17;5.68;;;2.25;;
63536;SDS011;49686;51.880;5.632;2023-04-03T05:21:44;6.70;;;2.30;;
63536;SDS011;49686;51.880;5.632;2023-04-03T05:24:11;6.53;;;2.40;;
63536;SDS011;49686;51.880;5.632;2023-04-03T05:26:38;7.18;;;2.17;;
63536;SDS011;49686;51.880;5.632;2023-04-03T05:29:05;4.82;;;1.80;;
63536;SDS011;49686;51.880;5.632;2023-04-03T05:31:32;3.88;;;2.20;;
63536;SDS011;49686;51.880;5.632;2023-04-03T05:34:00;5.68;;;2.53;;
63536;SDS011;49686;51.880;5.632;2023-04-03T05:36:27;5.43;;;2.50;;
63536;SDS011;49686;51.880;5.632;2023-04-03T05:38:54;6.85;;;2.47;;
63536;SDS011;49686;51.880;5.632;2023-04-03T05:41:21;5.20;;;2.40;;
63536;SDS011;49686;51.880;5.632;2023-04-03T05:43:48;3.65;;;1.95;;
63536;SDS011;49686;51.880;5.632;2023-04-03T05:46:16;4.25;;;1.80;;
63536;SDS011;49686;51.880;5.632;2023-04-03T05:48:44;4.18;;;1.90;;
63536;SDS011;49686;51.880;5.632;2023-04-03T05:51:15;6.45;;;2.22;;
63536;SDS011;49686;51.880;5.632;2023-04-03T05:53:43;5.93;;;2.20;;
63536;SDS011;49686;51.880;5.632;2023-04-03T05:56:11;5.32;;;1.80;;
63536;SDS011;49686;51.880;5.632;2023-04-03T05:58:38;7.35;;;2.40;;
63536;SDS011;49686;51.880;5.632;2023-04-03T06:01:05;4.43;;;2.00;;
63536;SDS011;49686;51.880;5.632;2023-04-03T06:03:32;8.52;;;2.47;;
63536;SDS011;49686;51.880;5.632;2023-04-03T06:06:00;4.43;;;2.20;;
63536;SDS011;49686;51.880;5.632;2023-04-03T06:08:30;6.88;;;2.00;;
63536;SDS011;49686;51.880;5.632;2023-04-03T06:10:57;5.93;;;2.03;;
63536;SDS011;49686;51.880;5.632;2023-04-03T06:13:24;6.95;;;2.35;;
63536;SDS011;49686;51.880;5.632;2023-04-03T06:15:51;6.97;;;2.15;;
63536;SDS011;49686;51.880;5.632;2023-04-03T06:18:20;6.25;;;1.90;;
63536;SDS011;49686;51.880;5.632;2023-04-03T06:20:46;5.05;;;2.45;;
63536;SDS011;49686;51.880;5.632;2023-04-03T06:23:13;9.23;;;2.50;;
63536;SDS011;49686;51.880;5.632;2023-04-03T06:25:41;3.40;;;1.75;;
63536;SDS011;49686;51.880;5.632;2023-04-03T06:28:08;7.30;;;2.03;;
63536;SDS011;49686;51.880;5.632;2023-04-03T06:30:35;3.20;;;1.88;;
63536;SDS011;49686;51.880;5.632;2023-04-03T06:33:02;6.22;;;1.65;;
63536;SDS011;49686;51.880;5.632;2023-04-03T06:35:29;8.00;;;3.10;;
63536;SDS011;49686;51.880;5.632;2023-04-03T06:37:56;4.50;;;2.17;;
63536;SDS011;49686;51.880;5.632;2023-04-03T06:40:24;6.88;;;2.30;;
63536;SDS011;49686;51.880;5.632;2023-04-03T06:42:52;2.70;;;1.33;;
63536;SDS011;49686;51.880;5.632;2023-04-03T06:45:19;4.18;;;2.10;;
63536;SDS011;49686;51.880;5.632;2023-04-03T06:47:46;6.80;;;2.30;;
63536;SDS011;49686;51.880;5.632;2023-04-03T06:50:13;3.50;;;2.30;;
63536;SDS011;49686;51.880;5.632;2023-04-03T06:52:40;4.78;;;1.83;;
63536;SDS011;49686;51.880;5.632;2023-04-03T06:55:07;4.65;;;1.45;;
63536;SDS011;49686;51.880;5.632;2023-04-03T06:57:35;4.43;;;1.75;;
63536;SDS011;49686;51.880;5.632;2023-04-03T07:00:04;5.32;;;1.73;;
63536;SDS011;49686;51.880;5.632;2023-04-03T07:02:32;5.10;;;1.55;;
63536;SDS011;49686;51.880;5.632;2023-04-03T07:04:59;3.10;;;1.95;;
63536;SDS011;49686;51.880;5.632;2023-04-03T07:07:26;5.22;;;1.45;;
63536;SDS011;49686;51.880;5.632;2023-04-03T07:09:53;4.78;;;1.92;;
63536;SDS011;49686;51.880;5.632;2023-04-03T07:12:19;3.38;;;1.67;;
63536;SDS011;49686;51.880;5.632;2023-04-03T07:14:46;4.20;;;1.70;;
63536;SDS011;49686;51.880;5.632;2023-04-03T07:17:14;2.83;;;1.38;;
63536;SDS011;49686;51.880;5.632;2023-04-03T07:19:41;5.15;;;1.55;;
63536;SDS011;49686;51.880;5.632;2023-04-03T07:22:08;2.80;;;1.63;;
63536;SDS011;49686;51.880;5.632;2023-04-03T07:24:35;3.50;;;1.60;;
63536;SDS011;49686;51.880;5.632;2023-04-03T07:27:02;5.05;;;2.08;;
63536;SDS011;49686;51.880;5.632;2023-04-03T07:29:29;5.57;;;1.35;;
63536;SDS011;49686;51.880;5.632;2023-04-03T07:31:56;2.55;;;1.35;;
63536;SDS011;49686;51.880;5.632;2023-04-03T07:34:24;4.88;;;2.10;;
63536;SDS011;49686;51.880;5.632;2023-04-03T07:36:51;3.30;;;1.63;;
63536;SDS011;49686;51.880;5.632;2023-04-03T07:39:17;6.35;;;2.20;;
63536;SDS011;49686;51.880;5.632;2023-04-03T07:41:44;2.90;;;1.40;;
63536;SDS011;49686;51.880;5.632;2023-04-03T07:44:11;5.93;;;1.40;;
63536;SDS011;49686;51.880;5.632;2023-04-03T07:46:38;5.13;;;2.00;;
63536;SDS011;49686;51.880;5.632;2023-04-03T07:49:05;4.25;;;1.40;;
63536;SDS011;49686;51.880;5.632;2023-04-03T07:51:33;3.65;;;1.27;;
63536;SDS011;49686;51.880;5.632;2023-04-03T07:53:59;4.77;;;1.43;;
63536;SDS011;49686;51.880;5.632;2023-04-03T07:56:27;4.22;;;1.70;;
63536;SDS011;49686;51.880;5.632;2023-04-03T07:58:54;2.15;;;1.15;;
63536;SDS011;49686;51.880;5.632;2023-04-03T08:01:21;2.95;;;1.40;;
63536;SDS011;49686;51.880;5.632;2023-04-03T08:03:48;2.72;;;1.80;;
63536;SDS011;49686;51.880;5.632;2023-04-03T08:06:15;3.20;;;1.50;;
63536;SDS011;49686;51.880;5.632;2023-04-03T08:08:51;5.50;;;1.73;;
63536;SDS011;49686;51.880;5.632;2023-04-03T08:11:18;8.93;;;1.60;;
63536;SDS011;49686;51.880;5.632;2023-04-03T08:13:44;4.50;;;2.22;;
63536;SDS011;49686;51.880;5.632;2023-04-03T08:16:12;5.70;;;1.60;;
63536;SDS011;49686;51.880;5.632;2023-04-03T08:18:42;4.07;;;2.38;;
63536;SDS011;49686;51.880;5.632;2023-04-03T08:21:09;4.28;;;2.08;;
63536;SDS011;49686;51.880;5.632;2023-04-03T08:23:37;4.07;;;1.53;;
63536;SDS011;49686;51.880;5.632;2023-04-03T08:26:07;3.92;;;2.00;;
63536;SDS011;49686;51.880;5.632;2023-04-03T08:28:34;4.28;;;2.85;;
63536;SDS011;49686;51.880;5.632;2023-04-03T08:31:04;5.72;;;1.50;;
63536;SDS011;49686;51.880;5.632;2023-04-03T08:33:31;4.32;;;2.70;;
63536;SDS011;49686;51.880;5.632;2023-04-03T08:35:58;3.47;;;1.45;;
63536;SDS011;49686;51.880;5.632;2023-04-03T08:38:25;2.22;;;1.20;;
63536;SDS011;49686;51.880;5.632;2023-04-03T08:40:59;3.17;;;1.30;;
63536;SDS011;49686;51.880;5.632;2023-04-03T08:43:31;3.92;;;1.92;;
63536;SDS011;49686;51.880;5.632;2023-04-03T08:46:05;3.45;;;1.50;;
63536;SDS011;49686;51.880;5.632;2023-04-03T08:48:40;3.70;;;1.60;;
63536;SDS011;49686;51.880;5.632;2023-04-03T08:53:39;2.88;;;1.50;;
63536;SDS011;49686;51.880;5.632;2023-04-03T08:56:09;2.13;;;1.05;;
63536;SDS011;49686;51.880;5.632;2023-04-03T08:58:42;2.45;;;0.80;;
63536;SDS011;49686;51.880;5.632;2023-04-03T09:01:16;4.00;;;1.25;;
63536;SDS011;49686;51.880;5.632;2023-04-03T09:03:45;2.75;;;1.02;;
63536;SDS011;49686;51.880;5.632;2023-04-03T09:06:13;2.50;;;1.52;;
63536;SDS011;49686;51.880;5.632;2023-04-03T09:08:43;1.55;;;1.00;;
63536;SDS011;49686;51.880;5.632;2023-04-03T09:11:13;3.95;;;1.60;;
63536;SDS011;49686;51.880;5.632;2023-04-03T09:13:49;1.83;;;0.90;;
63536;SDS011;49686;51.880;5.632;2023-04-03T09:16:26;2.22;;;1.30;;
63536;SDS011;49686;51.880;5.632;2023-04-03T09:19:02;2.35;;;1.00;;
63536;SDS011;49686;51.880;5.632;2023-04-03T09:21:39;3.72;;;1.45;;
63536;SDS011;49686;51.880;5.632;2023-04-03T09:24:06;2.92;;;1.30;;
63536;SDS011;49686;51.880;5.632;2023-04-03T09:26:39;3.00;;;2.00;;
63536;SDS011;49686;51.880;5.632;2023-04-03T09:29:12;1.77;;;0.90;;
63536;SDS011;49686;51.880;5.632;2023-04-03T09:31:44;1.70;;;0.70;;
63536;SDS011;49686;51.880;5.632;2023-04-03T09:34:13;1.33;;;0.73;;
63536;SDS011;49686;51.880;5.632;2023-04-03T09:36:47;2.22;;;0.95;;
63536;SDS011;49686;51.880;5.632;2023-04-03T09:39:16;1.92;;;0.82;;
63536;SDS011;49686;51.880;5.632;2023-04-03T09:41:55;3.80;;;1.05;;
63536;SDS011;49686;51.880;5.632;2023-04-03T09:44:26;1.55;;;0.70;;
63536;SDS011;49686;51.880;5.632;2023-04-03T09:46:54;1.55;;;1.13;;
63536;SDS011;49686;51.880;5.632;2023-04-03T09:49:22;1.08;;;0.68;;
63536;SDS011;49686;51.880;5.632;2023-04-03T09:51:48;1.42;;;1.33;;
63536;SDS011;49686;51.880;5.632;2023-04-03T09:54:29;1.95;;;0.60;;
63536;SDS011;49686;51.880;5.632;2023-04-03T09:56:58;0.50;;;0.50;;
63536;SDS011;49686;51.880;5.632;2023-04-03T09:59:31;1.45;;;0.70;;
63536;SDS011;49686;51.880;5.632;2023-04-03T10:01:59;1.55;;;0.65;;
63536;SDS011;49686;51.880;5.632;2023-04-03T10:07:03;1.40;;;0.85;;
63536;SDS011;49686;51.880;5.632;2023-04-03T10:09:55;1.80;;;0.60;;
63536;SDS011;49686;51.880;5.632;2023-04-03T10:12:23;1.27;;;0.70;;
63536;SDS011;49686;51.880;5.632;2023-04-03T10:14:53;1.25;;;1.08;;
63536;SDS011;49686;51.880;5.632;2023-04-03T10:17:22;3.15;;;1.38;;
63536;SDS011;49686;51.880;5.632;2023-04-03T10:19:59;1.98;;;1.00;;
63536;SDS011;49686;51.880;5.632;2023-04-03T10:22:32;2.95;;;0.70;;
63536;SDS011;49686;51.880;5.632;2023-04-03T10:25:10;4.38;;;2.65;;
63536;SDS011;49686;51.880;5.632;2023-04-03T10:27:47;1.98;;;0.70;;
63536;SDS011;49686;51.880;5.632;2023-04-03T10:30:27;0.68;;;0.63;;
63536;SDS011;49686;51.880;5.632;2023-04-03T10:36:12;2.40;;;0.80;;
63536;SDS011;49686;51.880;5.632;2023-04-03T10:38:48;2.15;;;0.70;;
63536;SDS011;49686;51.880;5.632;2023-04-03T10:41:23;2.30;;;0.80;;
63536;SDS011;49686;51.880;5.632;2023-04-03T10:44:04;1.33;;;0.85;;
63536;SDS011;49686;51.880;5.632;2023-04-03T10:46:42;3.15;;;1.27;;
63536;SDS011;49686;51.880;5.632;2023-04-03T10:49:15;1.83;;;1.10;;
63536;SDS011;49686;51.880;5.632;2023-04-03T10:51:49;3.15;;;1.20;;
63536;SDS011;49686;51.880;5.632;2023-04-03T10:54:24;1.00;;;0.70;;
63536;SDS011;49686;51.880;5.632;2023-04-03T10:56:54;0.73;;;0.50;;
63536;SDS011;49686;51.880;5.632;2023-04-03T10:59:39;2.80;;;0.80;;
63536;SDS011;49686;51.880;5.632;2023-04-03T11:02:11;1.70;;;0.80;;
63536;SDS011;49686;51.880;5.632;2023-04-03T11:04:43;1.83;;;0.70;;
63536;SDS011;49686;51.880;5.632;2023-04-03T11:07:15;1.08;;;0.60;;
63536;SDS011;49686;51.880;5.632;2023-04-03T11:09:45;1.42;;;1.02;;
63536;SDS011;49686;51.880;5.632;2023-04-03T11:12:17;2.40;;;1.00;;
63536;SDS011;49686;51.880;5.632;2023-04-03T11:14:49;2.72;;;0.63;;
63536;SDS011;49686;51.880;5.632;2023-04-03T11:17:24;1.58;;;0.65;;
63536;SDS011;49686;51.880;5.632;2023-04-03T11:19:59;2.40;;;0.90;;
63536;SDS011;49686;51.880;5.632;2023-04-03T11:22:32;2.67;;;0.70;;
63536;SDS011;49686;51.880;5.632;2023-04-03T11:25:03;1.45;;;0.80;;
63536;SDS011;49686;51.880;5.632;2023-04-03T11:27:42;1.80;;;0.70;;
63536;SDS011;49686;51.880;5.632;2023-04-03T11:30:14;0.80;;;0.80;;
63536;SDS011;49686;51.880;5.632;2023-04-03T11:32:48;1.40;;;0.80;;
63536;SDS011;49686;51.880;5.632;2023-04-03T11:35:36;0.82;;;0.68;;
63536;SDS011;49686;51.880;5.632;2023-04-03T11:38:04;1.33;;;0.80;;
63536;SDS011;49686;51.880;5.632;2023-04-03T11:40:32;3.42;;;0.90;;
63536;SDS011;49686;51.880;5.632;2023-04-03T11:43:07;1.80;;;0.80;;
63536;SDS011;49686;51.880;5.632;2023-04-03T11:45:55;1.52;;;0.80;;
63536;SDS011;49686;51.880;5.632;2023-04-03T11:48:42;2.75;;;1.55;;
63536;SDS011;49686;51.880;5.632;2023-04-03T12:09:29;3.42;;;0.98;;
63536;SDS011;49686;51.880;5.632;2023-04-03T12:12:00;2.20;;;1.10;;
63536;SDS011;49686;51.880;5.632;2023-04-03T12:14:49;2.92;;;1.02;;
63536;SDS011;49686;51.880;5.632;2023-04-03T12:17:19;2.22;;;1.23;;
63536;SDS011;49686;51.880;5.632;2023-04-03T12:19:49;4.97;;;1.00;;
63536;SDS011;49686;51.880;5.632;2023-04-03T12:22:16;2.47;;;0.93;;
63536;SDS011;49686;51.880;5.632;2023-04-03T12:24:45;1.35;;;0.80;;
63536;SDS011;49686;51.880;5.632;2023-04-03T12:27:17;5.43;;;0.80;;
63536;SDS011;49686;51.880;5.632;2023-04-03T12:29:52;0.90;;;0.77;;
63536;SDS011;49686;51.880;5.632;2023-04-03T12:35:18;2.95;;;1.60;;
63536;SDS011;49686;51.880;5.632;2023-04-03T12:37:54;2.08;;;1.27;;
63536;SDS011;49686;51.880;5.632;2023-04-03T12:40:39;2.60;;;1.73;;
63536;SDS011;49686;51.880;5.632;2023-04-03T12:43:25;3.47;;;1.83;;
63536;SDS011;49686;51.880;5.632;2023-04-03T12:46:18;3.88;;;2.25;;
63536;SDS011;49686;51.880;5.632;2023-04-03T12:48:48;4.05;;;1.70;;
63536;SDS011;49686;51.880;5.632;2023-04-03T12:53:46;2.15;;;1.17;;
63536;SDS011;49686;51.880;5.632;2023-04-03T12:56:18;3.15;;;1.27;;
63536;SDS011;49686;51.880;5.632;2023-04-03T12:58:46;1.75;;;1.00;;
63536;SDS011;49686;51.880;5.632;2023-04-03T13:01:22;2.95;;;1.67;;
63536;SDS011;49686;51.880;5.632;2023-04-03T13:03:52;4.68;;;1.40;;
63536;SDS011;49686;51.880;5.632;2023-04-03T13:06:21;1.95;;;1.20;;
63536;SDS011;49686;51.880;5.632;2023-04-03T13:08:51;1.45;;;1.00;;
63536;SDS011;49686;51.880;5.632;2023-04-03T13:11:19;2.85;;;1.20;;
63536;SDS011;49686;51.880;5.632;2023-04-03T13:13:54;2.90;;;1.20;;
63536;SDS011;49686;51.880;5.632;2023-04-03T13:16:21;2.50;;;1.08;;
63536;SDS011;49686;51.880;5.632;2023-04-03T13:18:51;3.33;;;1.10;;
63536;SDS011;49686;51.880;5.632;2023-04-03T13:21:19;2.70;;;1.10;;
63536;SDS011;49686;51.880;5.632;2023-04-03T13:23:49;2.15;;;1.08;;
63536;SDS011;49686;51.880;5.632;2023-04-03T13:26:31;2.42;;;1.13;;
63536;SDS011;49686;51.880;5.632;2023-04-03T13:29:00;3.90;;;2.60;;
63536;SDS011;49686;51.880;5.632;2023-04-03T13:31:30;4.32;;;1.70;;
63536;SDS011;49686;51.880;5.632;2023-04-03T13:34:02;2.25;;;1.95;;
63536;SDS011;49686;51.880;5.632;2023-04-03T13:36:32;3.92;;;2.30;;
63536;SDS011;49686;51.880;5.632;2023-04-03T13:39:02;2.67;;;1.52;;
63536;SDS011;49686;51.880;5.632;2023-04-03T13:41:32;3.15;;;1.20;;
63536;SDS011;49686;51.880;5.632;2023-04-03T13:44:16;2.03;;;1.00;;
63536;SDS011;49686;51.880;5.632;2023-04-03T13:46:51;1.10;;;1.00;;
63536;SDS011;49686;51.880;5.632;2023-04-03T13:49:22;1.70;;;0.93;;
63536;SDS011;49686;51.880;5.632;2023-04-03T13:51:55;3.38;;;1.00;;
63536;SDS011;49686;51.880;5.632;2023-04-03T13:54:33;2.55;;;1.35;;
63536;SDS011;49686;51.880;5.632;2023-04-03T13:57:02;2.83;;;1.30;;
63536;SDS011;49686;51.880;5.632;2023-04-03T13:59:37;1.98;;;1.17;;
63536;SDS011;49686;51.880;5.632;2023-04-03T14:02:10;2.45;;;1.17;;
63536;SDS011;49686;51.880;5.632;2023-04-03T14:04:47;2.35;;;1.40;;
63536;SDS011;49686;51.880;5.632;2023-04-03T14:07:17;2.25;;;1.00;;
63536;SDS011;49686;51.880;5.632;2023-04-03T14:09:43;3.15;;;1.02;;
63536;SDS011;49686;51.880;5.632;2023-04-03T14:12:12;3.10;;;1.25;;
63536;SDS011;49686;51.880;5.632;2023-04-03T14:14:56;5.50;;;1.20;;
63536;SDS011;49686;51.880;5.632;2023-04-03T14:17:24;2.40;;;1.15;;
63536;SDS011;49686;51.880;5.632;2023-04-03T14:19:53;2.10;;;1.40;;
63536;SDS011;49686;51.880;5.632;2023-04-03T14:22:22;2.97;;;1.55;;
63536;SDS011;49686;51.880;5.632;2023-04-03T14:27:20;2.30;;;1.30;;
63536;SDS011;49686;51.880;5.632;2023-04-03T14:29:54;4.22;;;1.30;;
63536;SDS011;49686;51.880;5.632;2023-04-03T14:32:23;2.53;;;1.90;;
63536;SDS011;49686;51.880;5.632;2023-04-03T14:34:53;2.08;;;1.20;;
63536;SDS011;49686;51.880;5.632;2023-04-03T14:37:21;2.85;;;1.50;;
63536;SDS011;49686;51.880;5.632;2023-04-03T14:39:50;3.13;;;1.40;;
63536;SDS011;49686;51.880;5.632;2023-04-03T14:42:19;2.20;;;1.17;;
63536;SDS011;49686;51.880;5.632;2023-04-03T14:44:48;4.22;;;1.55;;
63536;SDS011;49686;51.880;5.632;2023-04-03T14:47:17;4.75;;;1.38;;
63536;SDS011;49686;51.880;5.632;2023-04-03T14:49:58;3.08;;;1.40;;
63536;SDS011;49686;51.880;5.632;2023-04-03T14:54:54;4.68;;;1.10;;
63536;SDS011;49686;51.880;5.632;2023-04-03T14:57:21;3.33;;;1.00;;
63536;SDS011;49686;51.880;5.632;2023-04-03T14:59:50;5.30;;;1.30;;
63536;SDS011;49686;51.880;5.632;2023-04-03T15:02:24;2.17;;;1.75;;
63536;SDS011;49686;51.880;5.632;2023-04-03T15:05:02;4.20;;;1.10;;
63536;SDS011;49686;51.880;5.632;2023-04-03T15:07:33;2.22;;;1.60;;
63536;SDS011;49686;51.880;5.632;2023-04-03T15:10:02;3.72;;;1.70;;
63536;SDS011;49686;51.880;5.632;2023-04-03T15:12:32;7.90;;;1.95;;
63536;SDS011;49686;51.880;5.632;2023-04-03T15:14:59;1.17;;;0.80;;
63536;SDS011;49686;51.880;5.632;2023-04-03T15:17:58;3.28;;;1.48;;
63536;SDS011;49686;51.880;5.632;2023-04-03T15:20:26;5.60;;;2.45;;
63536;SDS011;49686;51.880;5.632;2023-04-03T15:22:54;2.22;;;1.60;;
63536;SDS011;49686;51.880;5.632;2023-04-03T15:25:21;2.47;;;1.10;;
63536;SDS011;49686;51.880;5.632;2023-04-03T15:27:48;1.45;;;1.10;;
63536;SDS011;49686;51.880;5.632;2023-04-03T15:30:16;2.75;;;1.65;;
63536;SDS011;49686;51.880;5.632;2023-04-03T15:32:46;3.08;;;1.30;;
63536;SDS011;49686;51.880;5.632;2023-04-03T15:35:14;1.73;;;0.98;;
63536;SDS011;49686;51.880;5.632;2023-04-03T15:37:41;3.25;;;1.50;;
63536;SDS011;49686;51.880;5.632;2023-04-03T15:40:08;2.95;;;1.40;;
63536;SDS011;49686;51.880;5.632;2023-04-03T15:42:36;2.58;;;1.38;;
63536;SDS011;49686;51.880;5.632;2023-04-03T15:45:05;3.65;;;1.60;;
63536;SDS011;49686;51.880;5.632;2023-04-03T15:47:33;5.60;;;1.40;;